Date,TemperatureHighF,TemperatureAvgF,TemperatureLowF,DewpointHighF,DewpointAvgF,DewpointLowF,HumidityHigh,HumidityAvg,HumidityLow,PressureMaxIn,PressureMinIn,WindSpeedMaxMPH,WindSpeedAvgMPH,GustSpeedMaxMPH,PrecipitationSumIn
2013-1-1,59,41,32,38,32,26,97,73,29,30.24,30.15,14,1,21,0.01
2013-1-2,58,39,27,38,32,26,95,77,45,30.20,30.09,9,1,11,0.00
2013-1-3,58,40,28,40,33,26,95,81,50,30.23,30.13,6,0,6,0.00
2013-1-4,59,42,32,43,36,30,96,82,50,30.25,30.13,5,0,6,0.01
2013-1-5,51,42,32,46,40,30,96,90,78,30.21,30.01,14,1,14,0.33
2013-1-6,56,46,36,45,42,35,96,86,67,30.16,30.01,6,1,18,0.01
2013-1-7,63,46,34,50,42,33,97,87,62,30.21,30.09,7,1,9,0.00
2013-1-8,63,48,38,50,44,37,98,87,63,30.20,30.08,7,1,12,0.01
2013-1-9,51,43,33,48,41,32,97,93,78,30.12,29.93,16,1,19,0.03
2013-1-10,51,39,30,37,32,29,97,78,48,30.16,30.03,15,2,19,0.01
2013-1-11,54,43,34,37,35,31,91,74,51,30.16,30.07,7,2,15,0.00
2013-1-12,51,40,28,33,30,25,94,70,38,30.21,30.09,11,1,12,0.00
2013-1-13,52,38,24,34,26,10,94,67,23,30.23,30.13,21,2,21,0.00
2013-1-14,57,43,32,32,22,9,89,48,24,30.35,30.20,25,2,29,0.00
2013-1-15,56,39,28,36,31,26,94,76,43,30.44,30.35,6,1,6,0.00
2013-1-16,61,40,27,38,33,26,96,77,40,30.41,30.23,5,0,6,0.00
2013-1-17,65,42,28,42,35,26,96,79,40,30.24,30.11,5,0,5,0.00
2013-1-18,66,43,29,45,36,28,97,79,43,30.19,30.08,4,0,4,0.01
2013-1-19,68,44,29,43,35,27,95,74,33,30.21,30.10,7,0,8,0.00
2013-1-20,66,44,29,42,34,27,95,73,38,30.19,30.07,5,0,7,0.00
2013-1-21,67,44,29,44,35,27,94,72,40,30.13,30.04,8,1,11,0.00
2013-1-22,66,46,30,44,36,28,94,71,36,30.07,29.93,17,1,17,0.00
2013-1-23,54,49,46,48,45,39,97,85,68,30.04,29.91,11,1,14,0.43
2013-1-24,60,52,48,54,50,47,98,93,81,30.14,30.02,7,1,12,0.00
2013-1-25,62,54,47,55,51,46,98,90,71,30.15,30.00,6,1,7,0.00
2013-1-26,58,49,36,48,41,34,98,77,47,30.04,29.91,15,2,20,0.01
2013-1-27,56,43,31,37,34,30,96,74,41,30.14,30.02,12,2,16,0.00
2013-1-28,58,45,34,41,37,32,94,76,48,30.25,30.13,17,2,18,0.00
2013-1-29,63,48,34,44,39,33,95,75,45,30.32,30.22,7,1,10,0.00
2013-1-30,69,50,36,48,41,35,96,76,43,30.30,30.20,6,1,9,0.00
2013-1-31,68,48,34,48,41,33,97,79,47,30.27,30.13,5,1,7,0.00